sensor_id;sensor_type;location;lat;lon;timestamp;P1;durP1;ratioP1;P2;durP2;ratioP2
80694;SDS011;70059;42.702;23.312;2024-03-17T00:01:36;27.63;;;17.30;;
80694;SDS011;70059;42.702;23.312;2024-03-17T00:04:03;24.38;;;16.20;;
80694;SDS011;70059;42.702;23.312;2024-03-17T00:06:29;31.23;;;18.17;;
80694;SDS011;70059;42.702;23.312;2024-03-17T00:08:55;24.88;;;16.42;;
80694;SDS011;70059;42.702;23.312;2024-03-17T00:11:22;27.38;;;18.20;;
80694;SDS011;70059;42.702;23.312;2024-03-17T00:13:47;30.23;;;19.15;;
80694;SDS011;70059;42.702;23.312;2024-03-17T00:16:13;30.58;;;19.33;;
80694;SDS011;70059;42.702;23.312;2024-03-17T00:18:43;32.40;;;19.33;;
80694;SDS011;70059;42.702;23.312;2024-03-17T00:21:11;35.53;;;20.05;;
80694;SDS011;70059;42.702;23.312;2024-03-17T00:23:38;35.13;;;21.65;;
80694;SDS011;70059;42.702;23.312;2024-03-17T00:26:04;37.67;;;23.73;;
80694;SDS011;70059;42.702;23.312;2024-03-17T00:28:29;39.80;;;24.35;;
80694;SDS011;70059;42.702;23.312;2024-03-17T00:30:55;41.17;;;23.15;;
80694;SDS011;70059;42.702;23.312;2024-03-17T00:33:21;35.00;;;22.45;;
80694;SDS011;70059;42.702;23.312;2024-03-17T00:35:46;38.90;;;23.55;;
80694;SDS011;70059;42.702;23.312;2024-03-17T00:38:12;37.67;;;23.27;;
80694;SDS011;70059;42.702;23.312;2024-03-17T00:40:38;41.13;;;23.77;;
80694;SDS011;70059;42.702;23.312;2024-03-17T00:43:05;43.78;;;23.15;;
80694;SDS011;70059;42.702;23.312;2024-03-17T00:45:31;40.63;;;23.25;;
80694;SDS011;70059;42.702;23.312;2024-03-17T00:47:57;39.03;;;21.75;;
80694;SDS011;70059;42.702;23.312;2024-03-17T00:50:23;41.20;;;23.50;;
80694;SDS011;70059;42.702;23.312;2024-03-17T00:52:48;36.88;;;22.27;;
80694;SDS011;70059;42.702;23.312;2024-03-17T00:55:14;38.85;;;23.90;;
80694;SDS011;70059;42.702;23.312;2024-03-17T00:57:40;43.35;;;23.95;;
80694;SDS011;70059;42.702;23.312;2024-03-17T01:00:06;38.88;;;23.35;;
80694;SDS011;70059;42.702;23.312;2024-03-17T01:02:35;39.90;;;23.95;;
80694;SDS011;70059;42.702;23.312;2024-03-17T01:05:02;40.13;;;23.95;;
80694;SDS011;70059;42.702;23.312;2024-03-17T01:07:30;35.45;;;22.50;;
80694;SDS011;70059;42.702;23.312;2024-03-17T01:09:56;35.83;;;22.70;;
80694;SDS011;70059;42.702;23.312;2024-03-17T01:12:22;36.38;;;21.85;;
80694;SDS011;70059;42.702;23.312;2024-03-17T01:14:48;39.97;;;23.30;;
80694;SDS011;70059;42.702;23.312;2024-03-17T01:17:14;34.83;;;22.45;;
80694;SDS011;70059;42.702;23.312;2024-03-17T01:19:39;36.58;;;23.00;;
80694;SDS011;70059;42.702;23.312;2024-03-17T01:22:05;35.00;;;22.25;;
80694;SDS011;70059;42.702;23.312;2024-03-17T01:24:32;35.38;;;21.45;;
80694;SDS011;70059;42.702;23.312;2024-03-17T01:26:58;33.13;;;20.38;;
80694;SDS011;70059;42.702;23.312;2024-03-17T01:29:24;36.00;;;22.02;;
80694;SDS011;70059;42.702;23.312;2024-03-17T01:31:51;37.03;;;21.23;;
80694;SDS011;70059;42.702;23.312;2024-03-17T01:34:17;40.55;;;22.90;;
80694;SDS011;70059;42.702;23.312;2024-03-17T01:36:44;36.08;;;21.02;;
80694;SDS011;70059;42.702;23.312;2024-03-17T01:39:09;35.15;;;20.58;;
80694;SDS011;70059;42.702;23.312;2024-03-17T01:41:36;34.60;;;21.05;;
80694;SDS011;70059;42.702;23.312;2024-03-17T01:44:02;32.63;;;19.90;;
80694;SDS011;70059;42.702;23.312;2024-03-17T01:46:28;32.67;;;20.73;;
80694;SDS011;70059;42.702;23.312;2024-03-17T01:48:54;35.20;;;20.58;;
80694;SDS011;70059;42.702;23.312;2024-03-17T01:51:20;35.97;;;20.95;;
80694;SDS011;70059;42.702;23.312;2024-03-17T01:53:47;34.42;;;20.67;;
80694;SDS011;70059;42.702;23.312;2024-03-17T01:56:13;34.78;;;20.63;;
80694;SDS011;70059;42.702;23.312;2024-03-17T01:58:42;39.60;;;21.08;;
80694;SDS011;70059;42.702;23.312;2024-03-17T02:01:09;33.40;;;20.23;;
80694;SDS011;70059;42.702;23.312;2024-03-17T02:03:35;35.13;;;20.65;;
80694;SDS011;70059;42.702;23.312;2024-03-17T02:06:01;34.97;;;21.15;;
80694;SDS011;70059;42.702;23.312;2024-03-17T02:08:27;31.95;;;20.50;;
80694;SDS011;70059;42.702;23.312;2024-03-17T02:10:56;35.63;;;20.50;;
80694;SDS011;70059;42.702;23.312;2024-03-17T02:13:21;36.80;;;22.00;;
80694;SDS011;70059;42.702;23.312;2024-03-17T02:15:47;34.55;;;20.42;;
80694;SDS011;70059;42.702;23.312;2024-03-17T02:18:13;35.78;;;21.45;;
80694;SDS011;70059;42.702;23.312;2024-03-17T02:20:39;35.53;;;20.92;;
80694;SDS011;70059;42.702;23.312;2024-03-17T02:23:22;37.97;;;21.17;;
80694;SDS011;70059;42.702;23.312;2024-03-17T02:25:51;34.72;;;20.23;;
80694;SDS011;70059;42.702;23.312;2024-03-17T02:28:17;35.90;;;20.58;;
80694;SDS011;70059;42.702;23.312;2024-03-17T02:30:43;32.17;;;19.40;;
80694;SDS011;70059;42.702;23.312;2024-03-17T02:33:09;33.25;;;20.67;;
80694;SDS011;70059;42.702;23.312;2024-03-17T02:35:35;32.55;;;20.33;;
80694;SDS011;70059;42.702;23.312;2024-03-17T02:38:01;36.20;;;21.00;;
80694;SDS011;70059;42.702;23.312;2024-03-17T02:40:27;37.70;;;21.35;;
80694;SDS011;70059;42.702;23.312;2024-03-17T02:42:53;36.17;;;21.23;;
80694;SDS011;70059;42.702;23.312;2024-03-17T02:45:20;32.42;;;20.38;;
80694;SDS011;70059;42.702;23.312;2024-03-17T02:47:46;35.05;;;21.13;;
80694;SDS011;70059;42.702;23.312;2024-03-17T02:50:12;36.35;;;20.00;;
80694;SDS011;70059;42.702;23.312;2024-03-17T02:52:38;38.88;;;22.08;;
80694;SDS011;70059;42.702;23.312;2024-03-17T02:55:04;36.30;;;21.60;;
80694;SDS011;70059;42.702;23.312;2024-03-17T02:57:31;37.50;;;22.08;;
80694;SDS011;70059;42.702;23.312;2024-03-17T02:59:57;34.67;;;20.38;;
80694;SDS011;70059;42.702;23.312;2024-03-17T03:02:23;38.03;;;21.05;;
80694;SDS011;70059;42.702;23.312;2024-03-17T03:04:49;34.78;;;21.17;;
80694;SDS011;70059;42.702;23.312;2024-03-17T03:07:15;39.42;;;21.45;;
80694;SDS011;70059;42.702;23.312;2024-03-17T03:09:41;36.28;;;21.45;;
80694;SDS011;70059;42.702;23.312;2024-03-17T03:12:06;36.78;;;21.67;;
80694;SDS011;70059;42.702;23.312;2024-03-17T03:14:32;37.75;;;20.98;;
80694;SDS011;70059;42.702;23.312;2024-03-17T03:16:59;37.55;;;21.25;;
80694;SDS011;70059;42.702;23.312;2024-03-17T03:19:25;37.92;;;22.15;;
80694;SDS011;70059;42.702;23.312;2024-03-17T03:21:51;34.30;;;21.00;;
80694;SDS011;70059;42.702;23.312;2024-03-17T03:24:18;33.72;;;20.83;;
80694;SDS011;70059;42.702;23.312;2024-03-17T03:26:44;36.55;;;20.98;;
80694;SDS011;70059;42.702;23.312;2024-03-17T03:29:10;36.30;;;21.30;;
80694;SDS011;70059;42.702;23.312;2024-03-17T03:31:36;38.17;;;21.15;;
80694;SDS011;70059;42.702;23.312;2024-03-17T03:34:04;38.42;;;22.35;;
80694;SDS011;70059;42.702;23.312;2024-03-17T03:36:32;36.63;;;21.90;;
80694;SDS011;70059;42.702;23.312;2024-03-17T03:38:58;38.42;;;22.45;;
80694;SDS011;70059;42.702;23.312;2024-03-17T03:41:24;40.25;;;22.50;;
80694;SDS011;70059;42.702;23.312;2024-03-17T03:43:50;42.53;;;22.65;;
80694;SDS011;70059;42.702;23.312;2024-03-17T03:46:16;36.88;;;22.17;;
80694;SDS011;70059;42.702;23.312;2024-03-17T03:48:42;38.17;;;21.92;;
80694;SDS011;70059;42.702;23.312;2024-03-17T03:51:08;37.38;;;22.45;;
80694;SDS011;70059;42.702;23.312;2024-03-17T03:53:34;40.03;;;24.35;;
80694;SDS011;70059;42.702;23.312;2024-03-17T03:56:02;39.78;;;23.17;;
80694;SDS011;70059;42.702;23.312;2024-03-17T03:58:34;41.10;;;22.60;;
80694;SDS011;70059;42.702;23.312;2024-03-17T04:01:07;43.38;;;23.92;;
80694;SDS011;70059;42.702;23.312;2024-03-17T04:03:33;36.72;;;22.88;;
80694;SDS011;70059;42.702;23.312;2024-03-17T04:06:10;41.67;;;22.88;;
80694;SDS011;70059;42.702;23.312;2024-03-17T04:08:36;39.47;;;23.63;;
80694;SDS011;70059;42.702;23.312;2024-03-17T04:11:05;47.22;;;24.20;;
80694;SDS011;70059;42.702;23.312;2024-03-17T04:13:30;41.90;;;23.58;;
80694;SDS011;70059;42.702;23.312;2024-03-17T04:15:56;44.03;;;23.58;;
80694;SDS011;70059;42.702;23.312;2024-03-17T04:18:24;46.38;;;23.27;;
80694;SDS011;70059;42.702;23.312;2024-03-17T04:20:52;42.10;;;24.20;;
80694;SDS011;70059;42.702;23.312;2024-03-17T04:23:21;40.45;;;23.38;;
80694;SDS011;70059;42.702;23.312;2024-03-17T04:25:48;39.13;;;23.92;;
80694;SDS011;70059;42.702;23.312;2024-03-17T04:28:16;41.95;;;23.45;;
80694;SDS011;70059;42.702;23.312;2024-03-17T04:30:42;40.40;;;22.52;;
80694;SDS011;70059;42.702;23.312;2024-03-17T04:33:10;42.22;;;22.77;;
80694;SDS011;70059;42.702;23.312;2024-03-17T04:35:39;40.20;;;22.67;;
80694;SDS011;70059;42.702;23.312;2024-03-17T04:38:06;37.60;;;23.00;;
80694;SDS011;70059;42.702;23.312;2024-03-17T04:40:32;39.75;;;22.52;;
80694;SDS011;70059;42.702;23.312;2024-03-17T04:42:58;41.58;;;24.70;;
80694;SDS011;70059;42.702;23.312;2024-03-17T04:45:24;41.67;;;23.90;;
80694;SDS011;70059;42.702;23.312;2024-03-17T04:47:51;44.08;;;23.92;;
80694;SDS011;70059;42.702;23.312;2024-03-17T04:50:17;42.03;;;25.33;;
80694;SDS011;70059;42.702;23.312;2024-03-17T04:52:43;42.50;;;24.05;;
80694;SDS011;70059;42.702;23.312;2024-03-17T04:55:09;39.75;;;23.48;;
80694;SDS011;70059;42.702;23.312;2024-03-17T04:57:35;43.03;;;23.55;;
80694;SDS011;70059;42.702;23.312;2024-03-17T05:00:01;36.88;;;22.83;;
80694;SDS011;70059;42.702;23.312;2024-03-17T05:02:28;44.47;;;23.67;;
80694;SDS011;70059;42.702;23.312;2024-03-17T05:04:53;39.70;;;23.58;;
80694;SDS011;70059;42.702;23.312;2024-03-17T05:07:19;39.67;;;23.55;;
80694;SDS011;70059;42.702;23.312;2024-03-17T05:09:45;43.60;;;23.88;;
80694;SDS011;70059;42.702;23.312;2024-03-17T05:12:10;43.42;;;23.98;;
80694;SDS011;70059;42.702;23.312;2024-03-17T05:14:36;40.10;;;23.15;;
80694;SDS011;70059;42.702;23.312;2024-03-17T05:17:02;43.70;;;24.75;;
80694;SDS011;70059;42.702;23.312;2024-03-17T05:19:27;48.30;;;25.92;;
80694;SDS011;70059;42.702;23.312;2024-03-17T05:21:53;43.08;;;23.80;;
80694;SDS011;70059;42.702;23.312;2024-03-17T05:24:19;45.47;;;25.02;;
80694;SDS011;70059;42.702;23.312;2024-03-17T05:26:44;43.78;;;24.90;;
80694;SDS011;70059;42.702;23.312;2024-03-17T05:29:10;38.75;;;24.73;;
80694;SDS011;70059;42.702;23.312;2024-03-17T05:31:37;40.40;;;23.92;;
80694;SDS011;70059;42.702;23.312;2024-03-17T05:34:08;39.45;;;23.63;;
80694;SDS011;70059;42.702;23.312;2024-03-17T05:36:35;38.25;;;23.45;;
80694;SDS011;70059;42.702;23.312;2024-03-17T05:39:01;43.10;;;23.75;;
80694;SDS011;70059;42.702;23.312;2024-03-17T05:41:27;38.85;;;23.05;;
80694;SDS011;70059;42.702;23.312;2024-03-17T05:43:53;39.97;;;23.42;;
80694;SDS011;70059;42.702;23.312;2024-03-17T05:46:23;42.80;;;23.35;;
80694;SDS011;70059;42.702;23.312;2024-03-17T05:48:49;40.67;;;23.10;;
80694;SDS011;70059;42.702;23.312;2024-03-17T05:51:14;40.15;;;24.13;;
80694;SDS011;70059;42.702;23.312;2024-03-17T05:53:41;41.60;;;23.90;;
80694;SDS011;70059;42.702;23.312;2024-03-17T05:56:09;39.08;;;23.08;;
80694;SDS011;70059;42.702;23.312;2024-03-17T05:58:36;39.25;;;23.25;;
80694;SDS011;70059;42.702;23.312;2024-03-17T06:01:02;40.42;;;23.25;;
80694;SDS011;70059;42.702;23.312;2024-03-17T06:03:29;36.60;;;21.80;;
80694;SDS011;70059;42.702;23.312;2024-03-17T06:05:54;40.95;;;23.45;;
80694;SDS011;70059;42.702;23.312;2024-03-17T06:08:21;39.50;;;22.83;;
80694;SDS011;70059;42.702;23.312;2024-03-17T06:10:47;37.42;;;23.33;;
80694;SDS011;70059;42.702;23.312;2024-03-17T06:13:15;39.78;;;21.83;;
80694;SDS011;70059;42.702;23.312;2024-03-17T06:15:42;43.38;;;22.60;;
80694;SDS011;70059;42.702;23.312;2024-03-17T06:18:09;33.72;;;21.20;;
80694;SDS011;70059;42.702;23.312;2024-03-17T06:20:41;33.50;;;20.63;;
80694;SDS011;70059;42.702;23.312;2024-03-17T06:23:07;37.75;;;20.95;;
80694;SDS011;70059;42.702;23.312;2024-03-17T06:25:40;30.67;;;19.35;;
80694;SDS011;70059;42.702;23.312;2024-03-17T06:28:09;32.47;;;21.15;;
80694;SDS011;70059;42.702;23.312;2024-03-17T06:30:41;37.67;;;20.77;;
80694;SDS011;70059;42.702;23.312;2024-03-17T06:33:11;33.33;;;21.02;;
80694;SDS011;70059;42.702;23.312;2024-03-17T06:35:38;35.08;;;20.77;;
80694;SDS011;70059;42.702;23.312;2024-03-17T06:38:04;34.05;;;20.00;;
80694;SDS011;70059;42.702;23.312;2024-03-17T06:40:34;30.53;;;19.60;;
80694;SDS011;70059;42.702;23.312;2024-03-17T06:43:03;28.55;;;19.17;;
80694;SDS011;70059;42.702;23.312;2024-03-17T06:45:29;30.67;;;19.60;;
80694;SDS011;70059;42.702;23.312;2024-03-17T06:47:55;29.33;;;20.08;;
80694;SDS011;70059;42.702;23.312;2024-03-17T06:50:21;27.42;;;18.60;;
80694;SDS011;70059;42.702;23.312;2024-03-17T06:52:47;30.23;;;19.50;;
80694;SDS011;70059;42.702;23.312;2024-03-17T06:55:13;30.73;;;19.85;;
80694;SDS011;70059;42.702;23.312;2024-03-17T06:57:41;29.88;;;18.42;;
80694;SDS011;70059;42.702;23.312;2024-03-17T07:00:11;25.05;;;18.55;;
80694;SDS011;70059;42.702;23.312;2024-03-17T07:02:42;29.90;;;18.33;;
80694;SDS011;70059;42.702;23.312;2024-03-17T07:05:15;27.98;;;18.63;;
80694;SDS011;70059;42.702;23.312;2024-03-17T07:07:43;27.90;;;17.73;;
80694;SDS011;70059;42.702;23.312;2024-03-17T07:10:10;25.75;;;18.85;;
80694;SDS011;70059;42.702;23.312;2024-03-17T07:12:37;25.10;;;17.77;;
80694;SDS011;70059;42.702;23.312;2024-03-17T07:15:04;26.83;;;19.65;;
80694;SDS011;70059;42.702;23.312;2024-03-17T07:17:30;29.42;;;17.83;;
80694;SDS011;70059;42.702;23.312;2024-03-17T07:19:56;29.33;;;17.33;;
80694;SDS011;70059;42.702;23.312;2024-03-17T07:22:21;24.25;;;17.80;;
80694;SDS011;70059;42.702;23.312;2024-03-17T07:24:47;29.27;;;17.67;;
80694;SDS011;70059;42.702;23.312;2024-03-17T07:27:17;24.08;;;17.27;;
80694;SDS011;70059;42.702;23.312;2024-03-17T07:29:42;25.33;;;18.08;;
80694;SDS011;70059;42.702;23.312;2024-03-17T07:32:08;26.70;;;18.73;;
80694;SDS011;70059;42.702;23.312;2024-03-17T07:34:34;25.77;;;16.58;;
80694;SDS011;70059;42.702;23.312;2024-03-17T07:37:00;27.05;;;17.05;;
80694;SDS011;70059;42.702;23.312;2024-03-17T07:39:28;22.52;;;16.15;;
80694;SDS011;70059;42.702;23.312;2024-03-17T07:41:58;23.48;;;16.10;;
80694;SDS011;70059;42.702;23.312;2024-03-17T07:44:24;23.75;;;16.40;;
80694;SDS011;70059;42.702;23.312;2024-03-17T07:46:50;26.35;;;16.63;;
80694;SDS011;70059;42.702;23.312;2024-03-17T07:49:16;18.92;;;15.05;;
80694;SDS011;70059;42.702;23.312;2024-03-17T07:51:42;22.67;;;16.42;;
80694;SDS011;70059;42.702;23.312;2024-03-17T07:54:09;24.70;;;15.38;;
80694;SDS011;70059;42.702;23.312;2024-03-17T07:56:34;23.15;;;16.15;;
80694;SDS011;70059;42.702;23.312;2024-03-17T07:59:00;18.73;;;14.48;;
80694;SDS011;70059;42.702;23.312;2024-03-17T08:01:25;20.05;;;14.10;;
80694;SDS011;70059;42.702;23.312;2024-03-17T08:03:51;22.63;;;13.95;;
80694;SDS011;70059;42.702;23.312;2024-03-17T08:06:21;19.52;;;14.50;;
80694;SDS011;70059;42.702;23.312;2024-03-17T08:08:47;20.08;;;14.07;;
80694;SDS011;70059;42.702;23.312;2024-03-17T08:11:12;18.85;;;14.10;;
80694;SDS011;70059;42.702;23.312;2024-03-17T08:13:38;17.52;;;13.18;;
80694;SDS011;70059;42.702;23.312;2024-03-17T08:16:05;18.90;;;13.82;;
80694;SDS011;70059;42.702;23.312;2024-03-17T08:18:32;16.27;;;13.70;;
80694;SDS011;70059;42.702;23.312;2024-03-17T08:20:59;18.73;;;14.15;;
80694;SDS011;70059;42.702;23.312;2024-03-17T08:23:32;18.15;;;13.40;;
80694;SDS011;70059;42.702;23.312;2024-03-17T08:26:04;18.60;;;13.85;;
80694;SDS011;70059;42.702;23.312;2024-03-17T08:28:29;24.65;;;17.67;;
80694;SDS011;70059;42.702;23.312;2024-03-17T08:30:59;18.10;;;14.45;;
80694;SDS011;70059;42.702;23.312;2024-03-17T08:33:26;19.00;;;14.57;;
80694;SDS011;70059;42.702;23.312;2024-03-17T08:38:32;19.42;;;15.00;;
80694;SDS011;70059;42.702;23.312;2024-03-17T08:41:03;17.02;;;14.75;;
80694;SDS011;70059;42.702;23.312;2024-03-17T08:43:29;21.85;;;15.00;;
80694;SDS011;70059;42.702;23.312;2024-03-17T08:45:59;17.58;;;14.50;;
80694;SDS011;70059;42.702;23.312;2024-03-17T08:48:31;17.48;;;14.43;;
80694;SDS011;70059;42.702;23.312;2024-03-17T08:50:58;16.35;;;14.27;;
80694;SDS011;70059;42.702;23.312;2024-03-17T08:53:25;16.67;;;14.25;;
80694;SDS011;70059;42.702;23.312;2024-03-17T08:55:51;20.52;;;14.88;;
80694;SDS011;70059;42.702;23.312;2024-03-17T08:58:18;16.77;;;15.07;;
80694;SDS011;70059;42.702;23.312;2024-03-17T09:00:44;19.38;;;15.10;;
80694;SDS011;70059;42.702;23.312;2024-03-17T09:03:10;17.10;;;15.20;;
80694;SDS011;70059;42.702;23.312;2024-03-17T09:05:37;16.85;;;15.35;;
80694;SDS011;70059;42.702;23.312;2024-03-17T09:08:07;17.20;;;15.43;;
80694;SDS011;70059;42.702;23.312;2024-03-17T09:10:41;17.33;;;15.63;;
80694;SDS011;70059;42.702;23.312;2024-03-17T09:13:15;17.42;;;15.68;;
80694;SDS011;70059;42.702;23.312;2024-03-17T09:18:30;20.83;;;17.63;;
80694;SDS011;70059;42.702;23.312;2024-03-17T09:21:02;18.23;;;16.17;;
80694;SDS011;70059;42.702;23.312;2024-03-17T09:23:35;18.58;;;16.77;;
80694;SDS011;70059;42.702;23.312;2024-03-17T09:26:04;17.80;;;16.10;;
80694;SDS011;70059;42.702;23.312;2024-03-17T09:28:31;18.77;;;16.83;;
80694;SDS011;70059;42.702;23.312;2024-03-17T09:30:58;18.95;;;17.27;;
80694;SDS011;70059;42.702;23.312;2024-03-17T09:33:24;17.65;;;15.93;;
80694;SDS011;70059;42.702;23.312;2024-03-17T09:36:01;16.05;;;14.55;;
80694;SDS011;70059;42.702;23.312;2024-03-17T09:38:29;19.75;;;15.93;;
80694;SDS011;70059;42.702;23.312;2024-03-17T09:40:55;15.73;;;14.23;;
80694;SDS011;70059;42.702;23.312;2024-03-17T09:43:26;15.02;;;13.63;;
80694;SDS011;70059;42.702;23.312;2024-03-17T09:45:53;15.10;;;13.50;;
80694;SDS011;70059;42.702;23.312;2024-03-17T09:48:27;14.90;;;13.43;;
80694;SDS011;70059;42.702;23.312;2024-03-17T09:50:54;14.88;;;13.43;;
80694;SDS011;70059;42.702;23.312;2024-03-17T09:53:25;14.65;;;13.45;;
80694;SDS011;70059;42.702;23.312;2024-03-17T09:56:03;13.02;;;11.93;;
80694;SDS011;70059;42.702;23.312;2024-03-17T09:58:34;12.43;;;11.38;;
80694;SDS011;70059;42.702;23.312;2024-03-17T10:01:00;12.93;;;11.73;;
80694;SDS011;70059;42.702;23.312;2024-03-17T10:03:42;12.32;;;11.05;;
80694;SDS011;70059;42.702;23.312;2024-03-17T10:06:16;11.97;;;10.97;;
80694;SDS011;70059;42.702;23.312;2024-03-17T10:08:43;15.27;;;12.20;;
80694;SDS011;70059;42.702;23.312;2024-03-17T10:11:11;13.43;;;12.02;;
80694;SDS011;70059;42.702;23.312;2024-03-17T10:13:38;13.13;;;12.02;;
80694;SDS011;70059;42.702;23.312;2024-03-17T10:16:04;13.43;;;12.05;;
80694;SDS011;70059;42.702;23.312;2024-03-17T10:18:30;12.80;;;11.57;;
80694;SDS011;70059;42.702;23.312;2024-03-17T10:20:56;11.57;;;10.45;;
80694;SDS011;70059;42.702;23.312;2024-03-17T10:23:23;10.88;;;9.98;;
80694;SDS011;70059;42.702;23.312;2024-03-17T10:25:49;12.43;;;11.25;;
80694;SDS011;70059;42.702;23.312;2024-03-17T10:28:16;14.63;;;11.88;;
80694;SDS011;70059;42.702;23.312;2024-03-17T10:30:42;12.77;;;11.68;;
80694;SDS011;70059;42.702;23.312;2024-03-17T10:33:25;10.20;;;9.40;;
80694;SDS011;70059;42.702;23.312;2024-03-17T10:35:58;12.98;;;11.13;;
80694;SDS011;70059;42.702;23.312;2024-03-17T10:38:25;10.15;;;9.45;;
80694;SDS011;70059;42.702;23.312;2024-03-17T10:40:52;10.90;;;10.00;;
80694;SDS011;70059;42.702;23.312;2024-03-17T10:43:18;11.35;;;10.45;;
80694;SDS011;70059;42.702;23.312;2024-03-17T10:45:49;10.45;;;9.60;;
80694;SDS011;70059;42.702;23.312;2024-03-17T10:48:17;10.57;;;9.50;;
80694;SDS011;70059;42.702;23.312;2024-03-17T10:50:46;10.77;;;9.82;;
80694;SDS011;70059;42.702;23.312;2024-03-17T10:53:13;9.75;;;8.88;;
80694;SDS011;70059;42.702;23.312;2024-03-17T10:55:46;9.93;;;9.02;;
80694;SDS011;70059;42.702;23.312;2024-03-17T11:01:05;9.30;;;8.50;;
80694;SDS011;70059;42.702;23.312;2024-03-17T11:03:32;16.90;;;10.35;;
80694;SDS011;70059;42.702;23.312;2024-03-17T11:06:00;11.27;;;10.07;;
80694;SDS011;70059;42.702;23.312;2024-03-17T11:08:29;11.13;;;10.13;;
80694;SDS011;70059;42.702;23.312;2024-03-17T11:10:57;14.25;;;10.35;;
80694;SDS011;70059;42.702;23.312;2024-03-17T11:13:31;17.80;;;10.48;;
80694;SDS011;70059;42.702;23.312;2024-03-17T11:15:57;11.85;;;10.27;;
80694;SDS011;70059;42.702;23.312;2024-03-17T11:23:59;11.10;;;10.15;;
80694;SDS011;70059;42.702;23.312;2024-03-17T11:26:30;11.48;;;10.52;;
80694;SDS011;70059;42.702;23.312;2024-03-17T11:28:58;10.82;;;9.93;;
80694;SDS011;70059;42.702;23.312;2024-03-17T11:33:58;9.77;;;9.07;;
80694;SDS011;70059;42.702;23.312;2024-03-17T11:52:04;9.95;;;9.18;;
80694;SDS011;70059;42.702;23.312;2024-03-17T11:54:38;10.90;;;9.23;;
80694;SDS011;70059;42.702;23.312;2024-03-17T11:57:09;10.35;;;9.50;;
80694;SDS011;70059;42.702;23.312;2024-03-17T11:59:36;10.07;;;9.27;;
80694;SDS011;70059;42.702;23.312;2024-03-17T12:02:07;9.77;;;8.88;;
80694;SDS011;70059;42.702;23.312;2024-03-17T12:04:44;10.80;;;9.73;;
80694;SDS011;70059;42.702;23.312;2024-03-17T12:07:17;10.43;;;9.43;;
80694;SDS011;70059;42.702;23.312;2024-03-17T12:09:44;10.52;;;9.48;;
80694;SDS011;70059;42.702;23.312;2024-03-17T12:14:46;11.18;;;9.82;;
80694;SDS011;70059;42.702;23.312;2024-03-17T12:17:14;11.48;;;10.38;;
80694;SDS011;70059;42.702;23.312;2024-03-17T12:19:41;10.48;;;9.60;;
80694;SDS011;70059;42.702;23.312;2024-03-17T12:22:09;10.02;;;9.13;;
80694;SDS011;70059;42.702;23.312;2024-03-17T12:24:47;10.30;;;9.30;;
80694;SDS011;70059;42.702;23.312;2024-03-17T12:27:22;10.27;;;9.27;;
80694;SDS011;70059;42.702;23.312;2024-03-17T12:29:50;11.95;;;10.73;;
80694;SDS011;70059;42.702;23.312;2024-03-17T12:32:21;10.93;;;9.93;;
80694;SDS011;70059;42.702;23.312;2024-03-17T12:34:52;11.63;;;10.52;;
80694;SDS011;70059;42.702;23.312;2024-03-17T12:37:25;10.85;;;9.88;;
80694;SDS011;70059;42.702;23.312;2024-03-17T12:39:57;12.00;;;10.90;;
80694;SDS011;70059;42.702;23.312;2024-03-17T12:42:25;11.23;;;10.23;;
80694;SDS011;70059;42.702;23.312;2024-03-17T12:44:55;10.88;;;9.90;;
80694;SDS011;70059;42.702;23.312;2024-03-17T12:47:23;11.43;;;10.32;;
80694;SDS011;70059;42.702;23.312;2024-03-17T12:49:50;13.40;;;11.07;;
80694;SDS011;70059;42.702;23.312;2024-03-17T12:52:21;11.25;;;10.23;;
80694;SDS011;70059;42.702;23.312;2024-03-17T12:55:06;10.43;;;9.43;;
80694;SDS011;70059;42.702;23.312;2024-03-17T12:57:52;13.18;;;11.40;;
80694;SDS011;70059;42.702;23.312;2024-03-17T13:00:46;14.48;;;10.95;;
80694;SDS011;70059;42.702;23.312;2024-03-17T13:03:25;12.20;;;11.00;;
80694;SDS011;70059;42.702;23.312;2024-03-17T13:05:52;11.82;;;10.68;;
80694;SDS011;70059;42.702;23.312;2024-03-17T13:08:17;16.75;;;11.25;;
80694;SDS011;70059;42.702;23.312;2024-03-17T13:10:43;14.48;;;11.20;;
80694;SDS011;70059;42.702;23.312;2024-03-17T13:13:09;12.20;;;10.90;;
80694;SDS011;70059;42.702;23.312;2024-03-17T13:15:37;11.10;;;10.10;;
80694;SDS011;70059;42.702;23.312;2024-03-17T13:18:06;11.93;;;10.70;;
80694;SDS011;70059;42.702;23.312;2024-03-17T13:20:32;15.02;;;10.90;;
80694;SDS011;70059;42.702;23.312;2024-03-17T13:22:59;12.70;;;10.50;;
80694;SDS011;70059;42.702;23.312;2024-03-17T13:25:25;23.52;;;11.98;;
80694;SDS011;70059;42.702;23.312;2024-03-17T13:27:54;20.55;;;13.82;;
80694;SDS011;70059;42.702;23.312;2024-03-17T13:30:21;25.70;;;17.38;;
80694;SDS011;70059;42.702;23.312;2024-03-17T13:32:48;14.05;;;12.55;;
80694;SDS011;70059;42.702;23.312;2024-03-17T13:35:21;12.55;;;11.35;;
80694;SDS011;70059;42.702;23.312;2024-03-17T13:37:49;13.15;;;11.10;;
80694;SDS011;70059;42.702;23.312;2024-03-17T13:40:17;12.32;;;11.10;;
80694;SDS011;70059;42.702;23.312;2024-03-17T13:42:44;12.23;;;10.98;;
80694;SDS011;70059;42.702;23.312;2024-03-17T13:45:14;12.60;;;11.35;;
80694;SDS011;70059;42.702;23.312;2024-03-17T13:47:41;12.60;;;11.23;;
80694;SDS011;70059;42.702;23.312;2024-03-17T13:50:24;15.52;;;11.88;;
80694;SDS011;70059;42.702;23.312;2024-03-17T13:52:50;15.70;;;12.85;;
80694;SDS011;70059;42.702;23.312;2024-03-17T13:55:17;18.90;;;13.45;;
80694;SDS011;70059;42.702;23.312;2024-03-17T13:57:45;18.30;;;14.13;;
80694;SDS011;70059;42.702;23.312;2024-03-17T14:00:12;14.68;;;12.65;;
80694;SDS011;70059;42.702;23.312;2024-03-17T14:02:45;17.58;;;13.20;;
80694;SDS011;70059;42.702;23.312;2024-03-17T14:05:12;14.52;;;12.40;;
80694;SDS011;70059;42.702;23.312;2024-03-17T14:07:40;16.75;;;12.88;;
80694;SDS011;70059;42.702;23.312;2024-03-17T14:10:06;13.05;;;11.30;;
80694;SDS011;70059;42.702;23.312;2024-03-17T14:12:33;15.90;;;11.93;;
80694;SDS011;70059;42.702;23.312;2024-03-17T14:15:00;12.40;;;10.88;;
80694;SDS011;70059;42.702;23.312;2024-03-17T14:17:26;14.50;;;11.73;;
80694;SDS011;70059;42.702;23.312;2024-03-17T14:19:51;12.90;;;10.63;;
80694;SDS011;70059;42.702;23.312;2024-03-17T14:22:18;14.52;;;11.93;;
80694;SDS011;70059;42.702;23.312;2024-03-17T14:24:43;13.07;;;11.25;;
80694;SDS011;70059;42.702;23.312;2024-03-17T14:27:09;14.27;;;12.23;;
80694;SDS011;70059;42.702;23.312;2024-03-17T14:29:37;17.13;;;12.48;;
80694;SDS011;70059;42.702;23.312;2024-03-17T14:32:03;15.68;;;12.68;;
80694;SDS011;70059;42.702;23.312;2024-03-17T14:34:29;13.55;;;11.65;;
80694;SDS011;70059;42.702;23.312;2024-03-17T14:37:01;13.00;;;11.32;;
80694;SDS011;70059;42.702;23.312;2024-03-17T14:39:28;12.20;;;10.90;;
80694;SDS011;70059;42.702;23.312;2024-03-17T14:41:55;14.63;;;10.95;;
80694;SDS011;70059;42.702;23.312;2024-03-17T14:44:20;13.35;;;10.90;;
80694;SDS011;70059;42.702;23.312;2024-03-17T14:46:46;14.32;;;12.05;;
80694;SDS011;70059;42.702;23.312;2024-03-17T14:49:14;13.93;;;11.73;;